createdAt,value
2023-01-20T00:01:34.791Z,3.42
2023-01-20T00:04:01.840Z,3.42
2023-01-20T00:06:29.161Z,3.44
2023-01-20T00:08:59.544Z,3.44
2023-01-20T00:11:27.090Z,3.44
2023-01-20T00:13:56.088Z,3.44
2023-01-20T00:16:23.933Z,3.39
2023-01-20T00:18:50.959Z,3.39
2023-01-20T00:21:18.399Z,3.41
2023-01-20T00:23:46.879Z,3.39
2023-01-20T00:26:22.344Z,3.41
2023-01-20T00:28:50.300Z,3.41
2023-01-20T00:31:22.737Z,3.41
2023-01-20T00:33:51.104Z,3.39
2023-01-20T00:36:19.311Z,3.41
2023-01-20T00:38:46.326Z,3.39
2023-01-20T00:41:14.492Z,3.39
2023-01-20T00:43:41.619Z,3.40
2023-01-20T00:46:08.939Z,3.41
2023-01-20T00:48:36.830Z,3.43
2023-01-20T00:51:05.491Z,3.41
2023-01-20T00:53:32.885Z,3.43
2023-01-20T00:56:00.159Z,3.41
2023-01-20T00:58:27.290Z,3.42
2023-01-20T01:00:55.471Z,3.41
2023-01-20T01:03:22.974Z,3.42
2023-01-20T01:05:50.241Z,3.42
2023-01-20T01:08:19.685Z,3.43
2023-01-20T01:10:46.649Z,3.43
2023-01-20T01:13:13.650Z,3.42
2023-01-20T01:15:47.530Z,3.44
2023-01-20T01:18:14.495Z,3.44
2023-01-20T01:20:41.317Z,3.43
2023-01-20T01:23:08.251Z,3.44
2023-01-20T01:25:36.843Z,3.44
2023-01-20T01:28:03.918Z,3.43
2023-01-20T01:30:30.832Z,3.41
2023-01-20T01:32:57.984Z,3.39
2023-01-20T01:35:24.913Z,3.35
2023-01-20T01:37:51.754Z,3.38
2023-01-20T01:40:18.689Z,3.34
2023-01-20T01:42:45.651Z,3.38
2023-01-20T01:45:13.282Z,3.38
2023-01-20T01:47:45.851Z,3.35
2023-01-20T01:50:18.429Z,3.36
2023-01-20T01:52:48.646Z,3.36
2023-01-20T01:55:17.189Z,3.33
2023-01-20T01:57:44.994Z,3.34
2023-01-20T02:00:12.629Z,3.34
2023-01-20T02:02:43.771Z,3.34
2023-01-20T02:05:13.929Z,3.36
2023-01-20T02:07:44.237Z,3.38
2023-01-20T02:10:12.006Z,3.40
2023-01-20T02:12:39.968Z,3.41
2023-01-20T02:15:07.642Z,3.41
2023-01-20T02:17:56.111Z,3.40
2023-01-20T02:20:36.798Z,3.39
2023-01-20T02:23:30.169Z,3.34
2023-01-20T02:26:10.264Z,3.36
2023-01-20T02:29:06.187Z,3.39
2023-01-20T02:32:00.835Z,3.41
2023-01-20T02:34:48.941Z,3.38
2023-01-20T02:37:19.915Z,3.40
2023-01-20T02:40:05.143Z,3.38
2023-01-20T02:42:48.423Z,3.38
2023-01-20T02:45:25.859Z,3.36
2023-01-20T02:48:30.716Z,3.34
2023-01-20T02:51:07.820Z,3.35
2023-01-20T02:53:50.547Z,3.34
2023-01-20T02:56:20.342Z,3.34
2023-01-20T02:58:55.498Z,3.35
2023-01-20T03:01:31.983Z,3.33
2023-01-20T03:04:01.747Z,3.33
2023-01-20T03:06:34.745Z,3.35
2023-01-20T03:09:10.449Z,3.33
2023-01-20T03:11:44.205Z,3.33
2023-01-20T03:14:14.088Z,3.34
2023-01-20T03:16:41.504Z,3.34
2023-01-20T03:19:09.797Z,3.33
2023-01-20T03:21:36.860Z,3.30
2023-01-20T03:24:05.221Z,3.31
2023-01-20T03:26:33.738Z,3.29
2023-01-20T03:29:07.009Z,3.28
2023-01-20T03:31:40.805Z,3.29
2023-01-20T03:34:13.428Z,3.29
2023-01-20T03:36:42.539Z,3.28
2023-01-20T03:39:09.825Z,3.27
2023-01-20T03:41:51.432Z,3.27
2023-01-20T03:44:27.322Z,3.31
2023-01-20T03:46:57.315Z,3.30
2023-01-20T03:49:29.810Z,3.31
2023-01-20T03:52:47.078Z,3.29
2023-01-20T03:55:34.263Z,3.29
2023-01-20T03:58:05.697Z,3.28
2023-01-20T04:00:39.502Z,3.30
2023-01-20T04:03:11.738Z,3.28
2023-01-20T04:05:40.177Z,3.28
2023-01-20T04:08:10.125Z,3.30
2023-01-20T04:10:41.128Z,3.32
2023-01-20T04:13:08.249Z,3.31
2023-01-20T04:15:39.301Z,3.32
2023-01-20T04:18:16.364Z,3.31
2023-01-20T04:20:49.794Z,3.32
2023-01-20T04:23:29.127Z,3.29
2023-01-20T04:25:56.137Z,3.31
2023-01-20T04:28:23.033Z,3.29
2023-01-20T04:30:50.851Z,3.23
2023-01-20T04:33:17.958Z,3.21
2023-01-20T04:35:44.917Z,3.25
2023-01-20T04:38:11.772Z,3.25
2023-01-20T04:40:38.654Z,3.24
2023-01-20T04:43:05.541Z,3.26
2023-01-20T04:45:32.525Z,3.24
2023-01-20T04:47:59.394Z,3.25
2023-01-20T04:50:26.391Z,3.26
2023-01-20T04:52:56.387Z,3.21
2023-01-20T04:55:23.435Z,3.23
2023-01-20T04:57:50.325Z,3.21
2023-01-20T05:00:20.147Z,3.21
2023-01-20T05:02:47.563Z,3.21
2023-01-20T05:05:14.982Z,3.19
2023-01-20T05:07:42.251Z,3.16
2023-01-20T05:10:09.983Z,3.15
2023-01-20T05:12:36.859Z,3.17
2023-01-20T05:15:04.183Z,3.18
2023-01-20T05:17:31.076Z,3.16
2023-01-20T05:19:58.003Z,3.18
2023-01-20T05:22:24.848Z,3.17
2023-01-20T05:24:51.757Z,3.13
2023-01-20T05:27:18.641Z,3.13
2023-01-20T05:29:45.496Z,3.14
2023-01-20T05:32:12.323Z,3.14
2023-01-20T05:34:39.228Z,3.12
2023-01-20T05:37:06.033Z,3.11
2023-01-20T05:39:33.079Z,3.13
2023-01-20T05:42:01.330Z,3.12
2023-01-20T05:44:28.309Z,3.13
2023-01-20T05:46:55.138Z,3.10
2023-01-20T05:49:22.055Z,3.11
2023-01-20T05:51:48.891Z,3.14
2023-01-20T05:54:15.794Z,3.11
2023-01-20T05:56:42.634Z,3.14
2023-01-20T05:59:09.829Z,3.05
2023-01-20T06:01:36.948Z,3.04
2023-01-20T06:04:04.071Z,3.05
2023-01-20T06:06:30.922Z,3.11
2023-01-20T06:08:57.915Z,3.08
2023-01-20T06:11:25.282Z,3.12
2023-01-20T06:13:52.314Z,3.11
2023-01-20T06:16:20.033Z,3.08
2023-01-20T06:18:47.021Z,3.08
2023-01-20T06:21:14.078Z,3.06
2023-01-20T06:23:41.845Z,3.04
2023-01-20T06:26:12.777Z,3.00
2023-01-20T06:28:40.134Z,3.02
2023-01-20T06:31:10.549Z,3.02
2023-01-20T06:33:37.705Z,3.09
2023-01-20T06:36:05.428Z,3.09
2023-01-20T06:38:34.073Z,3.06
2023-01-20T06:41:06.893Z,3.05
2023-01-20T06:43:35.430Z,3.06
2023-01-20T06:46:03.896Z,3.05
2023-01-20T06:48:31.263Z,3.03
2023-01-20T06:51:18.677Z,3.04
2023-01-20T06:53:51.689Z,3.06
2023-01-20T06:56:18.707Z,3.04
2023-01-20T06:58:45.552Z,3.03
2023-01-20T07:01:15.366Z,3.03
2023-01-20T07:03:43.743Z,3.01
2023-01-20T07:06:16.824Z,3.00
2023-01-20T07:08:46.859Z,3.00
2023-01-20T07:11:13.925Z,3.01
2023-01-20T07:13:40.841Z,3.01
2023-01-20T07:16:10.489Z,3.01
2023-01-20T07:18:39.147Z,3.01
2023-01-20T07:21:06.415Z,2.99
2023-01-20T07:23:33.894Z,2.99
2023-01-20T07:26:02.429Z,2.99
2023-01-20T07:28:31.115Z,2.98
2023-01-20T07:31:09.795Z,3.00
2023-01-20T07:33:37.857Z,2.94
2023-01-20T07:36:06.883Z,2.93
2023-01-20T07:38:34.036Z,2.96
2023-01-20T07:41:04.859Z,2.97
2023-01-20T07:43:33.094Z,2.97
2023-01-20T07:46:01.985Z,2.96
2023-01-20T07:48:32.161Z,2.96
2023-01-20T07:51:08.012Z,2.98
2023-01-20T07:53:40.310Z,2.98
2023-01-20T07:56:11.299Z,2.96
2023-01-20T07:58:38.495Z,2.96
2023-01-20T08:01:13.919Z,2.97
2023-01-20T08:03:40.957Z,3.11
2023-01-20T08:06:10.810Z,2.88
2023-01-20T08:08:38.224Z,2.98
2023-01-20T08:11:06.886Z,3.01
2023-01-20T08:13:33.965Z,2.98
2023-01-20T08:16:05.766Z,2.97
2023-01-20T08:18:34.016Z,2.98
2023-01-20T08:21:02.068Z,2.98
2023-01-20T08:23:29.009Z,2.97
2023-01-20T08:26:00.181Z,2.97
2023-01-20T08:28:28.295Z,2.99
2023-01-20T08:30:55.828Z,2.97
2023-01-20T08:33:22.834Z,2.97
2023-01-20T08:35:49.674Z,2.98
2023-01-20T08:38:16.563Z,2.97
2023-01-20T08:40:44.005Z,2.95
2023-01-20T08:43:11.064Z,2.91
2023-01-20T08:45:37.959Z,2.93
2023-01-20T08:48:04.904Z,2.93
2023-01-20T08:50:31.757Z,2.90
2023-01-20T08:52:58.700Z,2.87
2023-01-20T08:55:25.556Z,2.91
2023-01-20T08:57:52.410Z,2.88
2023-01-20T09:00:19.809Z,2.89
2023-01-20T09:02:46.803Z,2.88
2023-01-20T09:05:15.059Z,2.85
2023-01-20T09:07:42.200Z,2.82
2023-01-20T09:10:09.718Z,2.86
2023-01-20T09:12:37.689Z,2.84
2023-01-20T09:15:07.609Z,2.86
2023-01-20T09:17:37.659Z,2.85
2023-01-20T09:20:04.906Z,2.85
2023-01-20T09:22:32.063Z,2.83
2023-01-20T09:25:00.374Z,2.86
2023-01-20T09:27:27.228Z,2.86
2023-01-20T09:29:54.137Z,2.85
2023-01-20T09:32:21.019Z,2.82
2023-01-20T09:34:47.843Z,2.84
2023-01-20T09:37:33.089Z,2.87
2023-01-20T09:40:18.471Z,2.86
2023-01-20T09:43:24.015Z,2.87
2023-01-20T09:46:46.519Z,2.88
2023-01-20T09:49:48.461Z,2.87
2023-01-20T09:52:42.664Z,2.89
2023-01-20T09:55:25.392Z,2.87
2023-01-20T09:58:19.231Z,2.87
2023-01-20T10:01:06.990Z,2.87
2023-01-20T10:03:41.646Z,2.86
2023-01-20T10:06:26.518Z,2.85
2023-01-20T10:09:11.589Z,2.86
2023-01-20T10:11:41.536Z,2.86
2023-01-20T10:14:55.356Z,2.90
2023-01-20T10:17:32.009Z,2.88
2023-01-20T10:20:15.614Z,2.89
2023-01-20T10:22:52.461Z,2.90
2023-01-20T10:25:28.442Z,2.90
2023-01-20T10:28:14.987Z,2.90
2023-01-20T10:30:42.709Z,2.90
2023-01-20T10:33:14.940Z,2.93
2023-01-20T10:35:48.479Z,2.94
2023-01-20T10:38:30.002Z,2.95
2023-01-20T10:41:34.717Z,2.97
2023-01-20T10:44:04.587Z,2.96
2023-01-20T10:46:42.147Z,2.97
2023-01-20T10:49:27.659Z,2.97
2023-01-20T10:52:04.404Z,2.97
2023-01-20T10:54:40.277Z,2.97
2023-01-20T10:57:12.730Z,2.99
2023-01-20T10:59:47.950Z,2.99
2023-01-20T11:02:26.202Z,3.03
2023-01-20T11:04:59.883Z,3.03
2023-01-20T11:07:28.202Z,3.03
2023-01-20T11:09:55.630Z,3.03
2023-01-20T11:12:29.001Z,3.04
2023-01-20T11:14:59.745Z,3.03
2023-01-20T11:17:26.884Z,3.05
2023-01-20T11:19:58.548Z,3.06
2023-01-20T11:22:32.029Z,3.05
2023-01-20T11:25:01.260Z,3.05
2023-01-20T11:27:33.576Z,3.06
2023-01-20T11:30:05.465Z,3.09
2023-01-20T11:32:35.183Z,3.09
2023-01-20T11:35:25.154Z,3.10
2023-01-20T11:37:52.911Z,3.12
2023-01-20T11:40:23.280Z,3.11
2023-01-20T11:42:52.512Z,3.11
2023-01-20T11:45:27.387Z,3.12
2023-01-20T11:48:02.154Z,3.15
2023-01-20T11:50:43.800Z,3.16
2023-01-20T11:53:24.808Z,3.18
2023-01-20T11:56:03.691Z,3.19
2023-01-20T11:58:51.431Z,3.20
2023-01-20T12:01:27.720Z,3.23
2023-01-20T12:04:12.788Z,3.24
2023-01-20T12:06:58.252Z,3.24
2023-01-20T12:09:32.875Z,3.25
2023-01-20T12:12:04.852Z,3.26
2023-01-20T12:14:39.244Z,3.24
2023-01-20T12:17:08.882Z,3.25
2023-01-20T12:20:02.039Z,3.26
2023-01-20T12:22:42.205Z,3.26
2023-01-20T12:25:17.630Z,3.26
2023-01-20T12:27:48.473Z,3.25
2023-01-20T12:30:44.325Z,3.25
2023-01-20T12:33:24.735Z,3.25
2023-01-20T12:36:28.294Z,3.25
2023-01-20T12:39:15.536Z,3.25
2023-01-20T12:42:04.539Z,3.25
2023-01-20T12:44:49.491Z,3.26
2023-01-20T12:47:34.643Z,3.25
2023-01-20T12:50:46.025Z,3.25
2023-01-20T12:53:18.905Z,3.26
2023-01-20T12:56:06.022Z,3.26
2023-01-20T12:58:37.091Z,3.27
2023-01-20T13:01:35.523Z,3.27
2023-01-20T13:04:17.654Z,3.28
2023-01-20T13:07:11.730Z,3.27
2023-01-20T13:10:08.987Z,3.28
2023-01-20T13:12:47.956Z,3.28
2023-01-20T13:15:19.171Z,3.28
2023-01-20T13:18:03.997Z,3.28
2023-01-20T13:20:31.581Z,3.28
2023-01-20T13:23:04.308Z,3.28
2023-01-20T13:25:32.981Z,3.29
2023-01-20T13:28:00.327Z,3.30
2023-01-20T13:30:47.917Z,3.32
2023-01-20T13:33:16.998Z,3.34
2023-01-20T13:35:46.677Z,3.34
2023-01-20T13:38:22.795Z,3.36
2023-01-20T13:40:52.925Z,3.38
2023-01-20T13:43:23.129Z,3.40
2023-01-20T13:46:10.116Z,3.43
2023-01-20T13:48:38.479Z,3.44
2023-01-20T13:51:32.420Z,3.44
2023-01-20T13:54:30.837Z,3.46
2023-01-20T13:57:24.204Z,3.47
2023-01-20T13:59:51.293Z,3.46
2023-01-20T14:02:19.112Z,3.48
2023-01-20T14:04:46.481Z,3.50
2023-01-20T14:07:29.554Z,3.50
2023-01-20T14:09:59.089Z,3.52
2023-01-20T14:12:26.452Z,3.53
2023-01-20T14:14:53.953Z,3.53
2023-01-20T14:17:23.971Z,3.55
2023-01-20T14:19:53.365Z,3.57
2023-01-20T14:22:26.761Z,3.56
2023-01-20T14:25:00.032Z,3.56
2023-01-20T14:27:33.665Z,3.57
2023-01-20T14:30:27.143Z,3.57
2023-01-20T14:32:54.228Z,3.59
2023-01-20T14:35:31.372Z,3.57
2023-01-20T14:37:59.283Z,3.63
2023-01-20T14:40:31.399Z,3.60
2023-01-20T14:43:22.716Z,3.60
2023-01-20T14:45:51.873Z,3.60
2023-01-20T14:48:33.437Z,3.59
2023-01-20T14:51:04.278Z,3.58
2023-01-20T14:53:31.232Z,3.58
2023-01-20T14:56:14.021Z,3.57
2023-01-20T14:58:49.145Z,3.55
2023-01-20T15:01:23.391Z,3.52
2023-01-20T15:03:58.807Z,3.50
2023-01-20T15:06:26.372Z,3.48
2023-01-20T15:09:06.203Z,3.48
2023-01-20T15:11:34.272Z,3.48
2023-01-20T15:14:01.274Z,3.47
2023-01-20T15:16:30.443Z,3.45
2023-01-20T15:19:18.459Z,3.45
2023-01-20T15:21:56.599Z,3.43
2023-01-20T15:24:31.751Z,3.43
2023-01-20T15:27:00.732Z,3.44
2023-01-20T15:29:36.986Z,3.44
2023-01-20T15:32:11.224Z,3.42
2023-01-20T15:34:38.314Z,3.42
2023-01-20T15:37:16.620Z,3.43
2023-01-20T15:39:43.514Z,3.42
2023-01-20T15:42:11.628Z,3.41
2023-01-20T15:44:38.529Z,3.41
2023-01-20T15:47:17.841Z,3.40
2023-01-20T15:49:44.826Z,3.39
2023-01-20T15:52:13.133Z,3.39
2023-01-20T15:54:39.977Z,3.38
2023-01-20T15:57:13.470Z,3.36
2023-01-20T15:59:41.925Z,3.38
2023-01-20T16:02:20.665Z,3.38
2023-01-20T16:04:47.932Z,3.32
2023-01-20T16:07:17.795Z,3.30
2023-01-20T16:09:44.923Z,3.31
2023-01-20T16:12:16.475Z,3.30
2023-01-20T16:14:44.675Z,3.28
2023-01-20T16:17:21.225Z,3.31
2023-01-20T16:19:49.369Z,3.27
2023-01-20T16:22:16.802Z,3.27
2023-01-20T16:24:44.198Z,3.26
2023-01-20T16:27:19.539Z,3.28
2023-01-20T16:29:46.971Z,3.29
2023-01-20T16:32:16.882Z,3.28
2023-01-20T16:34:45.676Z,3.31
2023-01-20T16:37:14.373Z,3.30
2023-01-20T16:39:41.403Z,3.26
2023-01-20T16:42:12.578Z,3.24
2023-01-20T16:44:39.617Z,3.19
2023-01-20T16:47:08.305Z,3.18
2023-01-20T16:49:35.422Z,3.20
2023-01-20T16:52:02.376Z,3.20
2023-01-20T16:54:29.414Z,3.20
2023-01-20T16:56:56.347Z,3.21
2023-01-20T16:59:23.364Z,3.24
2023-01-20T17:01:50.330Z,3.20
2023-01-20T17:04:17.433Z,3.21
2023-01-20T17:06:44.369Z,3.16
2023-01-20T17:09:11.888Z,3.17
2023-01-20T17:11:40.532Z,3.17
2023-01-20T17:14:09.643Z,3.17
2023-01-20T17:16:36.605Z,3.16
2023-01-20T17:19:04.845Z,3.14
2023-01-20T17:21:33.380Z,3.09
2023-01-20T17:24:03.550Z,3.05
2023-01-20T17:26:30.846Z,3.08
2023-01-20T17:29:02.217Z,3.14
2023-01-20T17:31:31.913Z,3.12
2023-01-20T17:33:59.304Z,3.09
2023-01-20T17:36:26.257Z,3.11
2023-01-20T17:38:53.270Z,3.10
2023-01-20T17:41:20.134Z,3.13
2023-01-20T17:43:47.048Z,3.11
2023-01-20T17:46:19.346Z,3.12
2023-01-20T17:48:46.894Z,3.12
2023-01-20T17:51:17.102Z,3.12
2023-01-20T17:53:44.779Z,3.01
2023-01-20T17:56:13.882Z,2.93
2023-01-20T17:58:45.351Z,3.08
2023-01-20T18:01:16.562Z,3.06
2023-01-20T18:03:45.233Z,3.08
2023-01-20T18:06:14.255Z,3.09
2023-01-20T18:08:42.033Z,3.09
2023-01-20T18:11:21.725Z,3.06
2023-01-20T18:13:53.425Z,3.05
2023-01-20T18:16:22.414Z,3.05
2023-01-20T18:18:50.571Z,3.04
2023-01-20T18:21:22.756Z,3.03
2023-01-20T18:23:50.382Z,3.03
2023-01-20T18:26:20.804Z,3.02
2023-01-20T18:28:48.249Z,3.03
2023-01-20T18:31:18.984Z,3.02
2023-01-20T18:33:51.671Z,3.02
2023-01-20T18:36:23.542Z,3.03
2023-01-20T18:38:52.630Z,3.04
2023-01-20T18:41:20.088Z,3.09
2023-01-20T18:43:47.523Z,3.28
2023-01-20T18:46:14.575Z,3.44
2023-01-20T18:48:45.950Z,3.54
2023-01-20T18:51:15.127Z,3.54
2023-01-20T18:53:44.011Z,3.60
2023-01-20T18:56:13.434Z,3.67
2023-01-20T18:58:45.653Z,3.70
2023-01-20T19:01:14.966Z,3.69
2023-01-20T19:03:42.163Z,3.68
2023-01-20T19:06:15.150Z,3.75
2023-01-20T19:08:43.957Z,3.78
2023-01-20T19:11:15.663Z,3.80
2023-01-20T19:13:43.721Z,3.80
2023-01-20T19:16:12.942Z,3.91
2023-01-20T19:18:41.299Z,3.93
2023-01-20T19:21:10.554Z,3.92
2023-01-20T19:23:37.762Z,3.89
2023-01-20T19:26:07.234Z,3.83
2023-01-20T19:28:35.269Z,3.85
2023-01-20T19:31:09.310Z,3.86
2023-01-20T19:33:37.190Z,3.90
2023-01-20T19:36:06.853Z,3.93
2023-01-20T19:38:34.844Z,3.91
2023-01-20T19:41:13.077Z,3.90
2023-01-20T19:43:40.350Z,3.92
2023-01-20T19:46:12.958Z,3.89
2023-01-20T19:48:40.568Z,3.89
2023-01-20T19:51:19.476Z,3.85
2023-01-20T19:53:48.637Z,3.86
2023-01-20T19:56:17.621Z,3.88
2023-01-20T19:58:45.721Z,3.89
2023-01-20T20:01:21.349Z,3.91
2023-01-20T20:03:49.713Z,3.93
2023-01-20T20:06:39.509Z,3.95
2023-01-20T20:09:10.182Z,3.93
2023-01-20T20:11:37.370Z,3.94
2023-01-20T20:14:07.278Z,3.97
2023-01-20T20:16:36.722Z,3.97
2023-01-20T20:19:05.405Z,3.95
2023-01-20T20:21:33.181Z,3.84
2023-01-20T20:24:01.557Z,3.75
2023-01-20T20:26:31.840Z,3.68
2023-01-20T20:29:00.240Z,3.62
2023-01-20T20:31:29.537Z,3.58
2023-01-20T20:33:58.321Z,3.55
2023-01-20T20:36:28.415Z,3.56
2023-01-20T20:38:56.757Z,3.53
2023-01-20T20:41:25.913Z,3.49
2023-01-20T20:44:00.872Z,3.48
2023-01-20T20:46:29.451Z,3.48
2023-01-20T20:49:01.338Z,3.46
2023-01-20T20:51:31.751Z,3.48
2023-01-20T20:54:00.601Z,3.45
2023-01-20T20:56:31.441Z,3.47
2023-01-20T20:59:02.508Z,3.46
2023-01-20T21:01:33.094Z,3.42
2023-01-20T21:04:00.751Z,3.44
2023-01-20T21:06:28.482Z,3.39
2023-01-20T21:08:55.697Z,3.38
2023-01-20T21:11:24.223Z,3.36
2023-01-20T21:13:52.427Z,3.35
2023-01-20T21:16:22.913Z,3.36
2023-01-20T21:18:52.117Z,3.38
2023-01-20T21:21:19.737Z,3.39
2023-01-20T21:23:51.783Z,3.40
2023-01-20T21:26:19.284Z,3.41
2023-01-20T21:28:49.173Z,3.40
2023-01-20T21:31:21.591Z,3.41
2023-01-20T21:33:53.754Z,3.41
2023-01-20T21:36:21.679Z,3.40
2023-01-20T21:38:48.936Z,3.41
2023-01-20T21:41:16.633Z,3.40
2023-01-20T21:44:03.889Z,3.43
2023-01-20T21:46:35.878Z,3.43
2023-01-20T21:49:23.226Z,3.42
2023-01-20T21:52:08.718Z,3.41
2023-01-20T21:54:35.769Z,3.43
2023-01-20T21:57:02.923Z,3.41
2023-01-20T21:59:30.316Z,3.42
2023-01-20T22:01:57.207Z,3.42
2023-01-20T22:04:24.113Z,3.42
2023-01-20T22:06:50.938Z,3.42
2023-01-20T22:09:17.988Z,3.40
2023-01-20T22:11:44.951Z,3.41
2023-01-20T22:14:11.996Z,3.42
2023-01-20T22:16:39.075Z,3.43
2023-01-20T22:19:06.273Z,3.42
2023-01-20T22:21:33.338Z,3.38
2023-01-20T22:24:03.607Z,3.39
2023-01-20T22:26:30.901Z,3.35
2023-01-20T22:28:57.951Z,3.32
2023-01-20T22:31:25.736Z,3.32
2023-01-20T22:33:54.268Z,3.31
2023-01-20T22:36:22.720Z,3.30
2023-01-20T22:38:51.119Z,3.28
2023-01-20T22:41:19.150Z,3.28
2023-01-20T22:43:48.132Z,3.29
2023-01-20T22:46:22.511Z,3.28
2023-01-20T22:48:49.787Z,3.28
2023-01-20T22:51:18.851Z,3.27
2023-01-20T22:53:46.043Z,3.28
2023-01-20T22:56:15.990Z,3.29
2023-01-20T22:58:43.827Z,3.28
2023-01-20T23:01:15.959Z,3.25
2023-01-20T23:03:43.656Z,3.21
2023-01-20T23:06:11.677Z,3.21
2023-01-20T23:08:39.187Z,3.20
2023-01-20T23:11:09.117Z,3.20
2023-01-20T23:13:36.768Z,3.21
2023-01-20T23:16:04.826Z,3.24
2023-01-20T23:18:32.386Z,3.20
2023-01-20T23:21:00.037Z,3.19
2023-01-20T23:23:27.893Z,3.21
2023-01-20T23:26:06.774Z,3.20
2023-01-20T23:28:37.527Z,3.20
2023-01-20T23:31:09.865Z,3.16
2023-01-20T23:33:36.885Z,3.18
2023-01-20T23:36:15.088Z,3.18
2023-01-20T23:38:43.365Z,3.18
2023-01-20T23:41:11.554Z,3.15
2023-01-20T23:43:38.696Z,3.17
2023-01-20T23:46:06.292Z,3.16
2023-01-20T23:48:34.566Z,3.17
2023-01-20T23:51:02.092Z,3.15
2023-01-20T23:53:30.766Z,3.15
2023-01-20T23:56:02.119Z,3.13
2023-01-20T23:58:29.708Z,3.12
